Time;durP1;ratioP1;P1;durP2;ratioP2;P2;SDS_P1;SDS_P2;PMS_P1;PMS_P2;Temp;Humidity;BMP_temperature;BMP_pressure;BME280_temperature;BME280_humidity;BME280_pressure;Samples;Min_cycle;Max_cycle;Signal;HPM_P1;HPM_P2
2021/03/29 00:00:29;;;;;;;2.50;2.05;;;13.00;70.40;;;;;;5060305;28;20409;-83
2021/03/29 00:02:57;;;;;;;2.95;2.10;;;13.00;70.30;;;;;;5091667;28;20499;-83
2021/03/29 00:05:25;;;;;;;2.60;1.88;;;13.00;70.40;;;;;;5077491;28;20079;-83
2021/03/29 00:07:58;;;;;;;3.00;2.08;;;13.00;70.40;;;;;;5074436;28;20062;-83
2021/03/29 00:10:25;;;;;;;2.42;1.98;;;13.00;70.40;;;;;;5070682;28;20422;-83
2021/03/29 00:12:52;;;;;;;2.33;1.95;;;13.00;70.40;;;;;;5061148;28;20032;-83
2021/03/29 00:15:25;;;;;;;2.30;2.00;;;12.90;70.40;;;;;;5071293;28;20365;-83
2021/03/29 00:17:51;;;;;;;3.05;2.25;;;12.90;70.40;;;;;;5077052;28;20031;-83
2021/03/29 00:20:21;;;;;;;3.55;2.05;;;12.90;70.40;;;;;;5057720;28;20028;-83
2021/03/29 00:22:47;;;;;;;2.72;2.13;;;12.90;70.40;;;;;;5074496;28;20059;-83
2021/03/29 00:25:19;;;;;;;3.50;2.20;;;12.90;70.40;;;;;;5072569;28;20061;-83
2021/03/29 00:27:45;;;;;;;3.67;2.05;;;12.80;70.40;;;;;;5073821;28;20032;-83
2021/03/29 00:30:18;;;;;;;3.05;1.98;;;12.80;70.40;;;;;;5086477;28;20040;-83
2021/03/29 00:32:45;;;;;;;3.70;2.42;;;12.90;70.50;;;;;;5090972;28;20078;-83
2021/03/29 00:35:14;;;;;;;2.53;1.85;;;12.80;70.40;;;;;;5077788;28;20024;-83
2021/03/29 00:37:43;;;;;;;3.30;2.08;;;12.80;70.50;;;;;;5078533;28;20035;-83
2021/03/29 00:40:11;;;;;;;2.55;2.03;;;12.80;70.50;;;;;;5095167;28;20031;-83
2021/03/29 00:42:39;;;;;;;2.97;2.00;;;12.70;70.40;;;;;;5035005;28;20145;-83
2021/03/29 00:45:11;;;;;;;3.47;2.35;;;12.70;70.50;;;;;;5051071;28;20035;-83
2021/03/29 00:47:38;;;;;;;3.17;2.20;;;12.70;70.50;;;;;;5094409;28;20082;-83
2021/03/29 00:50:16;;;;;;;4.03;2.20;;;12.70;70.50;;;;;;5094499;28;20093;-82
2021/03/29 00:52:44;;;;;;;2.60;1.98;;;12.70;70.50;;;;;;5089320;28;20081;-83
2021/03/29 00:55:10;;;;;;;2.50;2.17;;;12.70;70.50;;;;;;5094600;28;20105;-83
2021/03/29 00:57:40;;;;;;;2.97;2.00;;;12.60;70.50;;;;;;5095541;28;20036;-83
2021/03/29 01:00:34;;;;;;;2.50;2.03;;;12.60;70.50;;;;;;5061004;28;20054;-83
2021/03/29 01:03:01;;;;;;;3.10;2.20;;;12.60;70.70;;;;;;5091441;28;20046;-82
2021/03/29 01:05:27;;;;;;;3.13;2.10;;;12.60;70.50;;;;;;5077472;28;20487;-83
2021/03/29 01:07:55;;;;;;;4.45;2.28;;;12.50;70.50;;;;;;5094870;28;20024;-83
2021/03/29 01:10:21;;;;;;;3.13;2.25;;;12.50;70.60;;;;;;5077401;28;20020;-83
2021/03/29 01:12:49;;;;;;;2.88;2.15;;;12.50;70.50;;;;;;5074414;28;20058;-83
2021/03/29 01:15:18;;;;;;;2.45;1.98;;;12.50;70.60;;;;;;5077403;28;20032;-83
2021/03/29 01:17:46;;;;;;;2.60;2.22;;;12.50;70.60;;;;;;5076227;28;20035;-83
2021/03/29 01:20:40;;;;;;;3.20;2.17;;;12.50;70.60;;;;;;5101858;28;20096;-83
2021/03/29 01:23:07;;;;;;;3.75;2.20;;;12.40;70.60;;;;;;5070808;28;20509;-83
2021/03/29 01:25:44;;;;;;;2.72;1.90;;;12.40;70.50;;;;;;5072192;28;20403;-82
2021/03/29 01:28:16;;;;;;;4.72;2.30;;;12.40;70.60;;;;;;5089084;28;20031;-83
2021/03/29 01:30:43;;;;;;;3.65;2.30;;;12.40;70.60;;;;;;5092886;28;20028;-83
2021/03/29 01:33:10;;;;;;;3.42;2.13;;;12.40;70.60;;;;;;5079156;28;20024;-82
2021/03/29 01:35:50;;;;;;;3.67;2.25;;;12.40;70.70;;;;;;5073774;28;20035;-83
2021/03/29 01:38:17;;;;;;;4.93;2.25;;;12.40;70.60;;;;;;5094205;28;20123;-82
2021/03/29 01:40:45;;;;;;;3.10;2.10;;;12.40;70.60;;;;;;5073461;28;20105;-82
2021/03/29 01:43:13;;;;;;;3.95;2.10;;;12.40;70.60;;;;;;5070512;28;20496;-82
2021/03/29 01:45:39;;;;;;;4.07;2.15;;;12.40;70.70;;;;;;5090127;28;20119;-83
2021/03/29 01:48:07;;;;;;;3.53;2.15;;;12.30;70.60;;;;;;5075682;28;20507;-82
2021/03/29 01:50:36;;;;;;;4.13;2.08;;;12.30;70.70;;;;;;5051781;28;20118;-83
2021/03/29 01:53:03;;;;;;;5.05;2.30;;;12.30;70.60;;;;;;5088304;28;20575;-83
2021/03/29 01:55:31;;;;;;;3.20;2.20;;;12.30;70.60;;;;;;5077223;28;20020;-82
2021/03/29 01:57:58;;;;;;;3.80;2.38;;;12.30;70.70;;;;;;5083341;28;20067;-82
2021/03/29 02:00:36;;;;;;;3.75;2.45;;;12.20;70.60;;;;;;5076206;28;20185;-82
2021/03/29 02:03:06;;;;;;;2.97;2.08;;;12.20;70.60;;;;;;5093086;28;20533;-82
2021/03/29 02:05:34;;;;;;;3.03;2.13;;;12.20;71.30;;;;;;5079395;28;20055;-82
2021/03/29 02:08:01;;;;;;;3.42;2.10;;;12.20;70.60;;;;;;5092849;28;20039;-81
2021/03/29 02:10:29;;;;;;;3.38;2.28;;;12.20;70.70;;;;;;5084849;28;20373;-82
2021/03/29 02:13:01;;;;;;;4.45;2.40;;;12.20;70.60;;;;;;5080063;28;20024;-83
2021/03/29 02:15:29;;;;;;;5.28;2.55;;;12.20;70.70;;;;;;5094224;28;20035;-82
2021/03/29 02:18:00;;;;;;;3.97;2.50;;;12.20;70.60;;;;;;5094282;28;20031;-82
2021/03/29 02:20:30;;;;;;;4.55;2.35;;;12.20;70.70;;;;;;5076277;28;20024;-82
2021/03/29 02:22:56;;;;;;;4.20;2.60;;;12.10;70.60;;;;;;5088363;28;20125;-82
2021/03/29 02:25:25;;;;;;;4.47;2.45;;;12.10;70.60;;;;;;5076435;28;20055;-83
2021/03/29 02:27:52;;;;;;;3.83;2.35;;;12.20;70.80;;;;;;5094738;28;20043;-82
2021/03/29 02:30:22;;;;;;;3.17;2.20;;;12.10;70.70;;;;;;5092224;28;20039;-83
2021/03/29 02:32:49;;;;;;;3.78;2.28;;;12.10;71.40;;;;;;5090948;28;20028;-82
2021/03/29 02:35:18;;;;;;;3.83;2.53;;;12.10;70.70;;;;;;5063914;28;20016;-83
2021/03/29 02:37:47;;;;;;;3.58;2.08;;;12.10;70.70;;;;;;5072230;28;20388;-82
2021/03/29 02:40:14;;;;;;;4.13;2.30;;;12.10;70.70;;;;;;5092941;28;20094;-83
2021/03/29 02:42:41;;;;;;;3.22;2.17;;;12.10;70.70;;;;;;5062979;28;20039;-83
2021/03/29 02:45:12;;;;;;;4.97;2.53;;;12.10;70.80;;;;;;5085402;28;20028;-83
2021/03/29 02:47:40;;;;;;;4.53;2.20;;;12.10;70.80;;;;;;5064552;28;20468;-83
2021/03/29 02:50:09;;;;;;;5.47;2.50;;;12.10;70.80;;;;;;5087129;28;20035;-81
2021/03/29 02:52:35;;;;;;;4.47;2.40;;;12.10;70.80;;;;;;5078026;28;20541;-83
2021/03/29 02:55:01;;;;;;;4.50;2.47;;;12.10;70.80;;;;;;5072705;28;20100;-83
2021/03/29 02:57:29;;;;;;;4.00;2.13;;;12.00;70.80;;;;;;5072350;28;20028;-83
2021/03/29 02:59:56;;;;;;;3.38;2.03;;;12.00;70.80;;;;;;5069892;28;20085;-83
2021/03/29 03:02:22;;;;;;;3.28;2.13;;;12.00;70.80;;;;;;5085517;28;20107;-83
2021/03/29 03:04:49;;;;;;;3.10;2.00;;;12.00;70.80;;;;;;5072453;28;20024;-83
2021/03/29 03:07:14;;;;;;;3.83;2.30;;;12.00;70.90;;;;;;5071425;28;20024;-83
2021/03/29 03:09:41;;;;;;;4.07;2.25;;;12.00;70.80;;;;;;5075442;28;20107;-83
2021/03/29 03:12:09;;;;;;;3.33;2.13;;;12.00;70.90;;;;;;5074742;28;20122;-83
2021/03/29 03:14:35;;;;;;;4.47;2.40;;;12.00;70.90;;;;;;5074983;28;20031;-82
2021/03/29 03:17:01;;;;;;;3.78;2.55;;;12.00;70.90;;;;;;5091758;28;20104;-83
2021/03/29 03:19:27;;;;;;;3.97;2.45;;;12.00;70.90;;;;;;5074692;28;20061;-83
2021/03/29 03:21:53;;;;;;;4.05;2.38;;;12.00;70.90;;;;;;5092200;28;20101;-82
2021/03/29 03:24:19;;;;;;;3.38;2.35;;;12.00;70.80;;;;;;5058216;28;20476;-83
2021/03/29 03:26:44;;;;;;;4.03;2.30;;;12.00;70.90;;;;;;5050594;28;20119;-83
2021/03/29 03:29:10;;;;;;;4.22;2.63;;;12.00;70.90;;;;;;5073863;28;20115;-83
2021/03/29 03:31:36;;;;;;;3.63;2.45;;;12.00;70.90;;;;;;5075054;28;20040;-82
2021/03/29 03:34:02;;;;;;;3.72;2.50;;;12.00;70.90;;;;;;5065217;28;20384;-82
2021/03/29 03:36:29;;;;;;;4.30;2.45;;;11.90;70.90;;;;;;5085536;28;20107;-82
2021/03/29 03:38:56;;;;;;;4.38;2.42;;;11.90;70.90;;;;;;5088394;28;20028;-82
2021/03/29 03:41:33;;;;;;;3.85;2.65;;;11.90;70.90;;;;;;5092540;28;20028;-83
2021/03/29 03:44:01;;;;;;;3.92;2.90;;;11.90;70.90;;;;;;5084883;28;20080;-82
2021/03/29 03:46:29;;;;;;;5.60;2.80;;;11.90;70.90;;;;;;5103494;28;20231;-83
2021/03/29 03:49:04;;;;;;;3.53;2.45;;;11.90;70.90;;;;;;5055113;28;20426;-82
2021/03/29 03:51:30;;;;;;;4.65;2.60;;;11.90;71.00;;;;;;5074181;28;20036;-83
2021/03/29 03:53:55;;;;;;;5.80;2.90;;;11.90;70.90;;;;;;5074879;28;20028;-83
2021/03/29 03:56:22;;;;;;;3.78;2.53;;;11.90;70.90;;;;;;5076365;28;20115;-82
2021/03/29 03:58:48;;;;;;;5.38;3.05;;;11.90;70.90;;;;;;5066650;28;20048;-82
2021/03/29 04:01:15;;;;;;;4.95;2.78;;;11.90;70.90;;;;;;5085329;28;20073;-82
2021/03/29 04:03:41;;;;;;;4.70;2.67;;;11.90;71.00;;;;;;5091547;28;20024;-83
2021/03/29 04:06:06;;;;;;;4.72;2.90;;;11.80;70.90;;;;;;5052556;28;20393;-83
2021/03/29 04:08:32;;;;;;;4.03;2.53;;;11.90;70.90;;;;;;5083475;28;20040;-82
2021/03/29 04:11:00;;;;;;;5.07;2.83;;;11.80;70.90;;;;;;5074984;28;20034;-83
2021/03/29 04:13:30;;;;;;;3.90;2.75;;;11.80;70.90;;;;;;5073683;28;20032;-82
2021/03/29 04:15:58;;;;;;;4.35;2.70;;;11.80;71.00;;;;;;5082352;28;20064;-82
2021/03/29 04:18:25;;;;;;;3.53;2.47;;;11.80;71.00;;;;;;5105970;28;20071;-82
2021/03/29 04:20:51;;;;;;;4.18;2.85;;;11.80;71.00;;;;;;5066369;28;20174;-82
2021/03/29 04:23:18;;;;;;;5.03;2.72;;;11.80;71.00;;;;;;5067474;28;20032;-82
2021/03/29 04:25:44;;;;;;;4.43;2.45;;;11.70;70.90;;;;;;5054458;28;20021;-83
2021/03/29 04:28:10;;;;;;;4.10;2.70;;;11.80;71.00;;;;;;5066380;28;20032;-83
2021/03/29 04:30:36;;;;;;;4.35;2.70;;;11.70;71.00;;;;;;5081510;28;20108;-81
2021/03/29 04:33:03;;;;;;;4.22;2.72;;;11.80;71.00;;;;;;5073157;28;20032;-82
2021/03/29 04:35:28;;;;;;;4.80;2.70;;;11.70;71.00;;;;;;5091070;28;20028;-82
2021/03/29 04:37:55;;;;;;;4.30;2.60;;;11.70;71.00;;;;;;5088305;28;20392;-82
2021/03/29 04:40:23;;;;;;;3.83;2.58;;;11.70;71.00;;;;;;5090868;28;20024;-83
2021/03/29 04:42:50;;;;;;;3.40;2.33;;;11.70;71.00;;;;;;5089970;28;20031;-84
2021/03/29 04:45:17;;;;;;;5.07;2.60;;;11.70;71.00;;;;;;5073868;28;20097;-80
2021/03/29 04:47:43;;;;;;;4.45;2.70;;;11.70;71.00;;;;;;5076893;28;20034;-80
2021/03/29 04:50:09;;;;;;;4.88;2.78;;;11.70;71.00;;;;;;5079571;28;20036;-80
2021/03/29 04:52:35;;;;;;;4.30;2.60;;;11.70;71.00;;;;;;5073123;28;20537;-80
2021/03/29 04:55:02;;;;;;;3.80;2.42;;;11.70;71.00;;;;;;5073527;28;20028;-80
2021/03/29 04:57:28;;;;;;;3.78;2.60;;;11.70;71.00;;;;;;5090247;28;20020;-78
2021/03/29 04:59:53;;;;;;;4.30;2.40;;;11.60;71.00;;;;;;5087600;28;20667;-79
2021/03/29 05:02:19;;;;;;;5.22;2.60;;;11.60;71.00;;;;;;5095255;28;20054;-78
2021/03/29 05:04:45;;;;;;;2.97;2.25;;;11.60;71.00;;;;;;5069727;28;20472;-80
2021/03/29 05:07:12;;;;;;;3.97;2.28;;;11.70;71.10;;;;;;5069525;28;20032;-79
2021/03/29 05:09:38;;;;;;;3.40;2.30;;;11.60;71.00;;;;;;5087420;28;20089;-80
2021/03/29 05:12:10;;;;;;;3.75;2.35;;;11.60;71.00;;;;;;5074523;28;20190;-79
2021/03/29 05:14:37;;;;;;;3.45;2.50;;;11.60;71.10;;;;;;5070362;28;20169;-80
2021/03/29 05:17:05;;;;;;;4.82;2.50;;;11.60;71.10;;;;;;5090206;28;20048;-78
2021/03/29 05:19:30;;;;;;;3.70;2.35;;;11.60;71.10;;;;;;5082442;28;20040;-85
2021/03/29 05:21:56;;;;;;;4.13;2.40;;;11.60;71.70;;;;;;5077080;28;20258;-77
2021/03/29 05:24:22;;;;;;;3.72;2.30;;;11.60;71.10;;;;;;5086208;28;20512;-80
2021/03/29 05:26:48;;;;;;;3.58;2.33;;;11.60;71.10;;;;;;5077687;28;20032;-79
2021/03/29 05:29:13;;;;;;;4.97;2.92;;;11.60;71.10;;;;;;5073479;28;20043;-79
2021/03/29 05:31:40;;;;;;;4.15;2.35;;;11.60;71.10;;;;;;5050072;28;20024;-85
2021/03/29 05:34:11;;;;;;;3.45;2.40;;;11.50;71.10;;;;;;5099580;28;20464;-79
2021/03/29 05:36:38;;;;;;;2.92;2.10;;;11.60;71.20;;;;;;5091711;28;20044;-81
2021/03/29 05:39:05;;;;;;;3.78;2.33;;;11.60;71.20;;;;;;5089963;28;20092;-82
2021/03/29 05:41:30;;;;;;;4.43;2.63;;;11.50;71.10;;;;;;5076563;28;20495;-80
2021/03/29 05:43:56;;;;;;;4.20;2.58;;;11.50;71.10;;;;;;5095105;28;20099;-80
2021/03/29 05:46:22;;;;;;;3.60;2.35;;;11.50;71.10;;;;;;5076370;28;20036;-80
2021/03/29 05:48:48;;;;;;;3.53;2.30;;;11.50;71.10;;;;;;5094831;28;20035;-81
2021/03/29 05:51:14;;;;;;;4.07;2.10;;;11.50;71.10;;;;;;5059679;28;20051;-80
2021/03/29 05:53:40;;;;;;;3.03;2.10;;;11.50;71.20;;;;;;5093024;28;20040;-81
2021/03/29 05:56:10;;;;;;;2.95;2.15;;;11.50;71.20;;;;;;5076849;28;20380;-80
2021/03/29 05:58:45;;;;;;;3.90;2.30;;;11.50;71.20;;;;;;5093334;28;20036;-81
2021/03/29 06:01:12;;;;;;;4.75;2.72;;;11.50;71.20;;;;;;5083310;28;20040;-81
2021/03/29 06:03:41;;;;;;;3.47;2.20;;;11.50;71.20;;;;;;5091844;28;20059;-81
2021/03/29 06:06:13;;;;;;;3.72;2.40;;;11.50;71.20;;;;;;5093357;28;20044;-81
2021/03/29 06:08:46;;;;;;;3.08;2.00;;;11.50;71.30;;;;;;5092754;28;20047;-82
2021/03/29 06:11:27;;;;;;;3.58;2.30;;;11.50;71.30;;;;;;5094148;28;20029;-79
2021/03/29 06:14:12;;;;;;;2.70;2.10;;;11.40;71.20;;;;;;5075805;28;20028;-79
2021/03/29 06:17:10;;;;;;;2.60;1.80;;;11.50;71.30;;;;;;5093461;28;20024;-79
2021/03/29 06:19:37;;;;;;;3.50;2.20;;;11.40;71.30;;;;;;5093543;28;20024;-77
2021/03/29 06:22:29;;;;;;;3.00;2.28;;;11.40;71.20;;;;;;5092978;28;20021;-80
2021/03/29 06:25:06;;;;;;;3.78;2.33;;;11.40;71.40;;;;;;5068145;28;20611;-80
2021/03/29 06:27:52;;;;;;;3.53;2.15;;;11.50;71.30;;;;;;5087984;28;20036;-80
2021/03/29 06:30:25;;;;;;;3.15;2.10;;;11.40;71.40;;;;;;5074155;28;20043;-81
2021/03/29 06:32:53;;;;;;;4.80;2.15;;;11.50;71.30;;;;;;5092762;28;20020;-81
2021/03/29 06:35:20;;;;;;;2.38;1.85;;;11.40;71.30;;;;;;5081545;28;20021;-81
2021/03/29 06:37:46;;;;;;;4.20;2.13;;;11.40;71.40;;;;;;5064309;28;20530;-80
2021/03/29 06:40:13;;;;;;;3.67;2.20;;;11.40;71.40;;;;;;5094213;28;20031;-81
2021/03/29 06:42:39;;;;;;;4.32;2.40;;;11.40;71.40;;;;;;5093273;28;20083;-81
2021/03/29 06:45:14;;;;;;;3.17;2.33;;;11.50;71.40;;;;;;5075886;28;20039;-80
2021/03/29 06:47:40;;;;;;;;;;;11.50;71.50;;;;;;5092676;28;20028;-81
2021/03/29 06:50:06;;;;;;;2.72;1.92;;;11.50;71.40;;;;;;5092476;28;19970;-81
2021/03/29 06:52:34;;;;;;;2.90;2.10;;;11.50;71.30;;;;;;5093780;28;20040;-81
2021/03/29 06:55:16;;;;;;;3.35;2.15;;;11.50;71.50;;;;;;5058819;28;20400;-80
2021/03/29 06:57:42;;;;;;;3.97;2.20;;;11.40;71.50;;;;;;5093550;28;20032;-82
2021/03/29 07:00:26;;;;;;;3.40;2.03;;;11.50;71.50;;;;;;5075294;28;20085;-81
2021/03/29 07:02:52;;;;;;;3.13;2.00;;;11.50;71.60;;;;;;5092538;28;20119;-84
2021/03/29 07:05:18;;;;;;;3.67;2.05;;;11.50;71.60;;;;;;5091559;28;20020;-80
2021/03/29 07:07:45;;;;;;;4.43;2.13;;;11.50;71.60;;;;;;5091915;28;20101;-79
2021/03/29 07:10:11;;;;;;;3.25;2.33;;;11.50;71.60;;;;;;5073918;28;20047;-79
2021/03/29 07:12:40;;;;;;;4.65;2.63;;;11.50;71.60;;;;;;5075114;28;20053;-79
2021/03/29 07:15:11;;;;;;;4.13;2.20;;;11.50;71.60;;;;;;5074273;28;20116;-82
2021/03/29 07:17:39;;;;;;;3.13;2.00;;;11.50;71.70;;;;;;5091163;28;20145;-83
2021/03/29 07:20:07;;;;;;;2.97;2.13;;;11.50;71.70;;;;;;5093176;28;20032;-83
2021/03/29 07:22:38;;;;;;;4.60;2.15;;;11.50;71.70;;;;;;5074664;28;20020;-80
2021/03/29 07:25:08;;;;;;;3.65;2.00;;;11.50;71.70;;;;;;5074429;28;20042;-81
2021/03/29 07:27:40;;;;;;;3.05;1.83;;;11.60;71.70;;;;;;5062218;28;20077;-81
2021/03/29 07:30:07;;;;;;;3.58;2.10;;;11.60;71.70;;;;;;5074049;28;20043;-83
2021/03/29 07:32:35;;;;;;;4.05;2.20;;;11.60;71.70;;;;;;5091695;28;20090;-82
2021/03/29 07:35:02;;;;;;;3.20;2.20;;;11.60;71.70;;;;;;5094390;28;20050;-83
2021/03/29 07:37:43;;;;;;;4.57;1.90;;;11.60;71.70;;;;;;5090409;28;20111;-79
2021/03/29 07:40:18;;;;;;;3.78;2.30;;;11.60;71.70;;;;;;5091129;28;20039;-79
2021/03/29 07:42:47;;;;;;;3.95;2.38;;;11.60;71.70;;;;;;5092293;28;20020;-78
2021/03/29 07:45:21;;;;;;;2.47;1.92;;;11.60;71.70;;;;;;5074777;28;20024;-78
2021/03/29 07:47:51;;;;;;;2.75;2.08;;;11.60;71.70;;;;;;5092403;28;20524;-77
2021/03/29 07:50:36;;;;;;;4.28;2.30;;;11.60;71.70;;;;;;5090613;28;20092;-80
2021/03/29 07:53:04;;;;;;;3.78;2.28;;;11.70;71.90;;;;;;5085076;28;20107;-81
2021/03/29 07:55:51;;;;;;;4.40;2.28;;;11.70;71.70;;;;;;5076725;28;20028;-81
2021/03/29 07:58:18;;;;;;;3.45;2.30;;;11.70;71.90;;;;;;5102462;28;20028;-82
2021/03/29 08:00:46;;;;;;;3.75;2.45;;;11.70;71.80;;;;;;5086975;28;20488;-82
2021/03/29 08:03:11;;;;;;;4.25;1.95;;;11.70;71.80;;;;;;5077595;28;20032;-83
2021/03/29 08:05:38;;;;;;;3.97;2.20;;;11.70;71.80;;;;;;5071658;28;20028;-82
2021/03/29 08:08:27;;;;;;;3.78;2.28;;;11.70;71.80;;;;;;5091851;28;20020;-82
2021/03/29 08:11:06;;;;;;;3.88;2.33;;;11.70;71.90;;;;;;5042831;28;20039;-83
2021/03/29 08:13:52;;;;;;;3.80;2.40;;;11.80;71.80;;;;;;5092443;28;20024;-84
2021/03/29 08:16:25;;;;;;;3.88;2.03;;;11.80;71.80;;;;;;5079370;28;20024;-82
2021/03/29 08:19:19;;;;;;;3.70;2.10;;;11.80;71.80;;;;;;5074325;28;20028;-84
2021/03/29 08:21:48;;;;;;;3.47;2.15;;;11.80;71.90;;;;;;5081388;28;20028;-83
2021/03/29 08:24:24;;;;;;;2.88;1.80;;;11.80;71.80;;;;;;5073062;28;20028;-83
2021/03/29 08:26:52;;;;;;;3.50;2.47;;;11.80;71.90;;;;;;5091562;28;20031;-83
2021/03/29 08:29:27;;;;;;;4.72;2.47;;;11.80;71.80;;;;;;5091499;28;20115;-83
2021/03/29 08:32:15;;;;;;;3.78;2.30;;;11.80;71.90;;;;;;5091396;28;20028;-83
2021/03/29 08:34:50;;;;;;;3.58;2.33;;;11.80;71.90;;;;;;5073879;28;20028;-82
2021/03/29 08:37:22;;;;;;;3.70;2.45;;;11.90;72.00;;;;;;5092975;28;20483;-83
2021/03/29 08:39:49;;;;;;;3.65;2.55;;;11.90;71.90;;;;;;5090987;28;20031;-83
2021/03/29 08:42:17;;;;;;;3.90;2.47;;;11.90;72.00;;;;;;5059681;28;20392;-83
2021/03/29 08:44:46;;;;;;;5.38;2.20;;;12.00;72.00;;;;;;5094505;28;20023;-83
2021/03/29 08:47:17;;;;;;;4.25;2.42;;;12.00;72.10;;;;;;5094877;28;20032;-82
2021/03/29 08:49:45;;;;;;;2.75;1.98;;;12.00;72.10;;;;;;5095733;28;20056;-83
2021/03/29 08:52:13;;;;;;;3.35;2.28;;;12.00;72.00;;;;;;5078002;28;20052;-83
2021/03/29 08:54:53;;;;;;;3.97;2.38;;;12.00;72.00;;;;;;5095911;28;20115;-83
2021/03/29 08:57:32;;;;;;;4.03;2.30;;;12.10;72.20;;;;;;5092148;28;20081;-83
2021/03/29 09:00:00;;;;;;;3.08;2.28;;;12.10;72.00;;;;;;5094634;28;20032;-85
2021/03/29 09:02:26;;;;;;;4.22;2.47;;;12.20;72.00;;;;;;5094922;28;20017;-83
2021/03/29 09:04:58;;;;;;;3.90;2.42;;;12.20;72.00;;;;;;5090403;28;20024;-84
2021/03/29 09:07:29;;;;;;;3.58;2.38;;;12.20;72.00;;;;;;5094961;28;20016;-81
2021/03/29 09:09:56;;;;;;;5.38;2.45;;;12.30;72.00;;;;;;5075835;28;20079;-84
2021/03/29 09:12:27;;;;;;;3.95;2.28;;;12.30;71.90;;;;;;5084138;28;20024;-84
2021/03/29 09:14:53;;;;;;;4.07;2.60;;;12.40;71.90;;;;;;5076107;28;20158;-82
2021/03/29 09:17:23;;;;;;;3.88;2.25;;;12.40;71.80;;;;;;5094915;28;20845;-84
2021/03/29 09:19:49;;;;;;;2.97;2.20;;;12.50;71.80;;;;;;5095187;28;20028;-84
2021/03/29 09:22:26;;;;;;;3.20;2.10;;;12.50;71.70;;;;;;5095596;28;20026;-85
2021/03/29 09:24:52;;;;;;;4.50;2.58;;;12.60;71.70;;;;;;5096505;28;20036;-83
2021/03/29 09:27:23;;;;;;;3.78;2.25;;;12.60;71.50;;;;;;5079324;28;20082;-84
2021/03/29 09:29:49;;;;;;;4.07;2.10;;;12.70;71.50;;;;;;5087732;28;20063;-83
2021/03/29 09:32:19;;;;;;;3.72;2.28;;;12.80;71.50;;;;;;5043411;28;20029;-83
2021/03/29 09:34:47;;;;;;;3.80;2.33;;;12.90;71.40;;;;;;5110205;28;20086;-83
2021/03/29 09:37:21;;;;;;;3.13;1.90;;;12.90;71.40;;;;;;5089171;28;20031;-84
2021/03/29 09:40:08;;;;;;;3.63;2.20;;;13.00;71.40;;;;;;5095829;28;20039;-84
2021/03/29 09:42:37;;;;;;;3.83;2.13;;;13.10;71.30;;;;;;5094475;28;20040;-83
2021/03/29 09:45:06;;;;;;;4.07;2.03;;;13.20;71.30;;;;;;5093886;28;20019;-83
2021/03/29 09:47:32;;;;;;;3.25;1.98;;;13.20;71.30;;;;;;5090980;28;20052;-83
2021/03/29 09:49:58;;;;;;;3.75;2.25;;;13.30;71.30;;;;;;5077084;28;20062;-84
2021/03/29 09:52:40;;;;;;;2.10;1.80;;;13.30;71.30;;;;;;5077219;28;20048;-83
2021/03/29 09:55:08;;;;;;;3.60;2.22;;;13.40;71.40;;;;;;5087358;28;20405;-83
2021/03/29 09:57:43;;;;;;;2.47;1.90;;;13.50;71.30;;;;;;5086125;28;20020;-84
2021/03/29 10:00:12;;;;;;;2.70;2.10;;;13.60;71.40;;;;;;5075803;28;20047;-83
2021/03/29 10:02:37;;;;;;;3.80;2.05;;;13.70;71.30;;;;;;5086676;28;20051;-84
2021/03/29 10:05:08;;;;;;;2.80;1.88;;;13.70;71.30;;;;;;5060551;28;20063;-84
2021/03/29 10:07:34;;;;;;;3.00;2.28;;;13.80;71.30;;;;;;5060786;28;20052;-85
2021/03/29 10:10:03;;;;;;;5.03;2.38;;;13.90;71.30;;;;;;5046040;28;20035;-84
2021/03/29 10:12:31;;;;;;;3.17;2.10;;;14.00;71.30;;;;;;5084971;28;20028;-84
2021/03/29 10:15:08;;;;;;;2.63;1.90;;;14.10;71.30;;;;;;5073588;28;20068;-83
2021/03/29 10:17:34;;;;;;;4.53;2.00;;;14.20;71.50;;;;;;5082335;28;20020;-83
2021/03/29 10:20:18;;;;;;;3.42;2.15;;;14.20;71.30;;;;;;5090833;28;20036;-83
2021/03/29 10:22:44;;;;;;;2.45;1.80;;;14.40;71.50;;;;;;5076963;28;20028;-83
2021/03/29 10:25:15;;;;;;;3.72;2.10;;;14.40;71.30;;;;;;5094590;28;20471;-83
2021/03/29 10:27:56;;;;;;;3.78;2.15;;;14.50;71.40;;;;;;5085075;28;20449;-85
2021/03/29 10:30:31;;;;;;;2.97;2.00;;;14.60;71.50;;;;;;5086644;28;20056;-87
2021/03/29 10:32:59;;;;;;;2.85;1.77;;;14.70;71.40;;;;;;5076179;28;20106;-83
2021/03/29 10:35:29;;;;;;;3.40;2.10;;;14.80;71.40;;;;;;5082421;28;20016;-84
2021/03/29 10:37:57;;;;;;;2.80;1.80;;;14.90;71.40;;;;;;5091731;28;20024;-83
2021/03/29 10:40:23;;;;;;;3.05;2.08;;;15.00;71.50;;;;;;5093229;28;20035;-84
2021/03/29 10:42:50;;;;;;;2.95;2.05;;;15.10;71.60;;;;;;5093041;28;20543;-84
2021/03/29 10:45:17;;;;;;;2.33;1.92;;;15.20;71.70;;;;;;5076533;28;20050;-82
2021/03/29 10:47:44;;;;;;;3.28;2.17;;;15.20;71.70;;;;;;5075939;28;20036;-86
2021/03/29 10:50:13;;;;;;;3.33;2.10;;;15.30;71.80;;;;;;5087188;28;20028;-80
2021/03/29 10:52:39;;;;;;;3.80;2.15;;;15.40;71.90;;;;;;5089553;28;20128;-80
2021/03/29 10:55:06;;;;;;;3.83;1.98;;;15.50;71.80;;;;;;5092063;28;20123;-80
2021/03/29 10:57:32;;;;;;;3.70;2.25;;;15.60;71.90;;;;;;5092257;28;20421;-84
2021/03/29 10:59:58;;;;;;;4.05;2.20;;;15.70;71.90;;;;;;5078988;28;20032;-81
2021/03/29 11:02:24;;;;;;;3.33;2.28;;;15.80;71.80;;;;;;5059097;28;20144;-82
2021/03/29 11:04:50;;;;;;;2.53;2.00;;;15.90;71.80;;;;;;5091034;28;20024;-80
2021/03/29 11:07:16;;;;;;;3.05;2.25;;;16.00;71.80;;;;;;5071385;28;20054;-80
2021/03/29 11:09:41;;;;;;;3.78;2.00;;;16.10;71.90;;;;;;5081074;28;20050;-80
2021/03/29 11:12:08;;;;;;;2.53;2.10;;;16.20;71.90;;;;;;5091735;28;20384;-80
2021/03/29 11:14:34;;;;;;;3.20;2.08;;;16.20;71.90;;;;;;5071698;28;20039;-79
2021/03/29 11:17:00;;;;;;;3.38;2.25;;;16.30;71.90;;;;;;5057783;28;20020;-80
2021/03/29 11:19:25;;;;;;;3.97;2.17;;;16.40;71.90;;;;;;5091991;28;20036;-80
2021/03/29 11:21:52;;;;;;;4.57;2.30;;;16.50;71.80;;;;;;5091527;28;20350;-81
2021/03/29 11:24:22;;;;;;;3.08;2.20;;;16.60;71.90;;;;;;5091664;28;20052;-81
2021/03/29 11:26:48;;;;;;;2.75;1.92;;;16.70;71.90;;;;;;5092796;28;20137;-80
2021/03/29 11:29:15;;;;;;;3.22;2.20;;;16.80;71.90;;;;;;5089328;28;20040;-81
2021/03/29 11:31:42;;;;;;;3.05;2.10;;;16.90;71.90;;;;;;5083873;28;20115;-82
2021/03/29 11:34:10;;;;;;;4.53;2.10;;;16.90;71.80;;;;;;5091182;28;20032;-81
2021/03/29 11:36:36;;;;;;;3.33;2.20;;;17.10;71.90;;;;;;5091802;28;20028;-82
2021/03/29 11:39:04;;;;;;;3.67;2.30;;;17.20;71.90;;;;;;5092374;28;20138;-80
2021/03/29 11:41:31;;;;;;;2.80;2.00;;;17.20;72.00;;;;;;5058185;28;20096;-79
2021/03/29 11:43:57;;;;;;;3.90;2.25;;;17.30;72.10;;;;;;5091000;28;20039;-81
2021/03/29 11:46:22;;;;;;;3.83;2.28;;;17.40;72.20;;;;;;5092130;28;20024;-80
2021/03/29 11:48:48;;;;;;;2.60;1.75;;;17.40;72.10;;;;;;5057993;28;20040;-80
2021/03/29 11:51:14;;;;;;;3.45;2.13;;;17.50;72.10;;;;;;5074306;28;20040;-81
2021/03/29 11:53:40;;;;;;;3.42;2.35;;;17.60;72.20;;;;;;5092125;28;20032;-80
2021/03/29 11:56:06;;;;;;;3.35;2.17;;;17.70;72.10;;;;;;5074395;28;20051;-81
2021/03/29 11:58:32;;;;;;;2.63;1.85;;;17.70;72.00;;;;;;5084129;28;20468;-80
2021/03/29 12:01:01;;;;;;;3.65;2.40;;;17.80;72.00;;;;;;5073588;28;20421;-79
2021/03/29 12:03:35;;;;;;;4.00;2.42;;;17.90;71.90;;;;;;5092453;28;20109;-80
2021/03/29 12:06:08;;;;;;;2.90;1.98;;;17.90;72.00;;;;;;5090717;28;20109;-80
2021/03/29 12:13:46;;;;;;;2.28;1.95;;;18.10;72.30;;;;;;5076696;28;20392;-80
2021/03/29 12:16:13;;;;;;;4.20;2.10;;;18.20;72.40;;;;;;5090494;28;20036;-80
2021/03/29 12:21:07;;;;;;;2.97;2.05;;;18.30;72.30;;;;;;5095140;28;20028;-80
2021/03/29 12:23:35;;;;;;;3.08;2.13;;;18.30;72.40;;;;;;5094911;28;20020;-81
2021/03/29 12:26:02;;;;;;;3.08;2.10;;;18.40;72.40;;;;;;5077742;28;20476;-79
2021/03/29 12:28:30;;;;;;;3.63;2.50;;;18.50;72.50;;;;;;5079995;28;20031;-80
2021/03/29 12:30:58;;;;;;;3.92;2.45;;;18.50;72.60;;;;;;5087674;28;20040;-80
2021/03/29 12:33:24;;;;;;;2.80;2.13;;;18.60;72.70;;;;;;5095141;28;20032;-80
2021/03/29 12:35:53;;;;;;;4.47;2.30;;;18.60;72.60;;;;;;5094810;28;20097;-80
2021/03/29 12:38:20;;;;;;;3.22;2.20;;;18.70;72.60;;;;;;5094589;28;20020;-80
2021/03/29 12:40:46;;;;;;;3.28;2.30;;;18.70;72.60;;;;;;5078180;28;20032;-80
2021/03/29 12:43:15;;;;;;;3.40;2.28;;;18.80;72.70;;;;;;5094359;28;20016;-79
2021/03/29 12:45:42;;;;;;;2.95;2.20;;;18.80;72.70;;;;;;5096356;28;20035;-80
2021/03/29 12:48:10;;;;;;;2.85;2.22;;;18.90;72.60;;;;;;5095520;28;20024;-80
2021/03/29 12:50:36;;;;;;;3.95;2.60;;;18.90;72.50;;;;;;5094233;28;20036;-79
2021/03/29 12:53:02;;;;;;;4.05;2.30;;;19.00;72.40;;;;;;5094311;28;20093;-81
2021/03/29 12:55:29;;;;;;;4.03;2.45;;;19.00;72.40;;;;;;5087053;28;20116;-80
2021/03/29 12:57:56;;;;;;;3.13;2.25;;;19.10;72.40;;;;;;5089357;28;20070;-79
2021/03/29 13:00:25;;;;;;;3.30;2.05;;;19.10;72.50;;;;;;5095622;28;20524;-80
2021/03/29 13:02:54;;;;;;;2.85;2.08;;;19.20;72.40;;;;;;5093995;28;20012;-80
2021/03/29 13:05:33;;;;;;;3.45;2.40;;;19.20;73.00;;;;;;5093143;28;20036;-80